Terminal Aerodrome Forecast
Issued by NWS Twin Cities, MN

Home | Current Version | Previous Version | Graphics & Text | Print | Product List | Glossary On
Versions: 1 2 3 4 5 6 7 8 9 10 11 12 13 14 15 16 17 18 19 20 21 22 23 24 25 26 27 28
000
FTUS43 KMPX 160500
TAFMSP
TAF
KMSP 160533Z 1606/1712 11014KT P6SM OVC080
     FM161000 10018G22KT P6SM OVC060
     FM161200 09020G27KT P6SM VCSH OVC050
     FM161500 11021G28KT P6SM -RA OVC035
     FM162000 08013G22KT 4SM -RA OVC015
     FM170100 02015G23KT 2SM -RASN OVC008
     FM170500 34014G20KT 4SM -SN OVC010=

USA.gov is the U.S. government's official web portal to all federal, state and local government web resources and services.